Climax, North Carolina
Current Conditions -  °F | °C
As of 4:54 PM on Saturday 20 Dec 2014 (Local Time) from KBUY Reporting Station
Overcast Overcast  
Wind Chill: 38°   Ceiling: 1000
Heat Index: 38°   Visibility: 9mi
Dew Point: 33°   Wind: 0mph
Humidity: 83%   Direction: NA
Pressure: 30.24"   Gusts: NA
Location:  35.91°N, 79.72°W
Report Text: KBUY 202154Z AUTO 00000KT 9SM OVC010 03/01 A3024 RMK AO2 SLP243 T00330006
Loading
Personal Weather Stations






























Interactive Weather Map New forecast layout! Learn more

10-Day Weather Forecast

Advertisements
Track Severe Weather on mobile